Time;durP1;ratioP1;P1;durP2;ratioP2;P2;SDS_P1;SDS_P2;PMS_P1;PMS_P2;Temp;Humidity;BMP_temperature;BMP_pressure;BME280_temperature;BME280_humidity;BME280_pressure;Samples;Min_cycle;Max_cycle;Signal;HPM_P1;HPM_P2
2021/12/07 00:00:19;;;;;;;;;;;4.00;86.80;;;;;;5053401;28;19909;-81
2021/12/07 00:02:44;;;;;;;;;;;4.00;85.90;;;;;;5048127;28;19968;-83
2021/12/07 00:05:10;;;;;;;;;;;3.80;86.70;;;;;;5051533;28;20011;-82
2021/12/07 00:07:36;;;;;;;;;;;3.80;87.00;;;;;;5048430;28;19951;-83
2021/12/07 00:10:03;;;;;;;;;;;4.00;86.40;;;;;;5052086;28;19916;-82
2021/12/07 00:12:34;;;;;;;;;;;4.00;86.80;;;;;;5053440;28;20003;-81
2021/12/07 00:15:02;;;;;;;;;;;4.10;86.70;;;;;;5054818;28;19995;-81
2021/12/07 00:17:29;;;;;;;;;;;4.10;86.50;;;;;;5052772;28;19935;-81
2021/12/07 00:19:55;;;;;;;;;;;4.20;86.10;;;;;;5044929;28;19909;-81
2021/12/07 00:22:20;;;;;;;;;;;4.30;85.50;;;;;;5050956;28;19978;-81
2021/12/07 00:24:45;;;;;;;;;;;4.30;85.40;;;;;;5050854;28;19913;-81
2021/12/07 00:27:11;;;;;;;;;;;4.30;84.70;;;;;;5055279;28;19935;-82
2021/12/07 00:29:39;;;;;;;;;;;4.20;85.30;;;;;;5054354;28;19912;-80
2021/12/07 00:32:20;;;;;;;;;;;4.10;85.10;;;;;;5051288;28;19913;-80
2021/12/07 00:35:46;;;;;;;;;;;4.20;85.60;;;;;;5045654;28;20421;-81
2021/12/07 00:37:42;;;;;;;;;;;4.20;85.50;;;;;;5039489;28;19963;-79
2021/12/07 00:40:09;;;;;;;;;;;4.30;85.10;;;;;;5055149;28;19913;-81
2021/12/07 00:42:34;;;;;;;;;;;4.20;84.50;;;;;;5053187;28;19920;-80
2021/12/07 00:45:01;;;;;;;;;;;4.20;85.40;;;;;;5040719;28;19913;-80
2021/12/07 00:47:26;;;;;;;;;;;4.20;85.20;;;;;;5055641;28;19993;-80
2021/12/07 00:49:52;;;;;;;;;;;4.10;85.40;;;;;;5052618;28;19996;-81
2021/12/07 00:52:17;;;;;;;;;;;4.20;85.70;;;;;;5052347;28;19935;-81
2021/12/07 00:54:43;;;;;;;;;;;4.20;85.50;;;;;;5052445;28;20019;-80
2021/12/07 00:57:08;;;;;;;;;;;4.20;86.10;;;;;;5049419;28;19924;-80
2021/12/07 00:59:34;;;;;;;;;;;4.20;86.00;;;;;;5035142;28;19909;-80
2021/12/07 01:01:59;;;;;;;;;;;4.20;85.40;;;;;;5032000;28;19932;-81
2021/12/07 01:04:26;;;;;;;;;;;4.30;85.10;;;;;;5050306;28;19923;-81
2021/12/07 01:09:35;;;;;;;;;;;4.30;84.90;;;;;;5047871;28;19913;-81
2021/12/07 01:24:40;;;;;;;;;;;4.20;84.90;;;;;;5052618;28;19939;-81
2021/12/07 01:25:47;;;;;;;;;;;4.20;86.00;;;;;;5052890;28;19939;-81
2021/12/07 01:28:27;;;;;;;;;;;4.20;86.20;;;;;;5054184;28;19952;-81
2021/12/07 01:31:06;;;;;;;;;;;4.20;86.00;;;;;;5035876;28;19918;-80
2021/12/07 01:52:30;;;;;;;;;;;4.20;85.80;;;;;;4996136;28;19924;-82
2021/12/07 01:58:06;;;;;;;;;;;3.90;86.60;;;;;;5036594;28;19924;-81
2021/12/07 02:00:34;;;;;;;;;;;4.00;86.70;;;;;;5056811;28;20437;-81
2021/12/07 02:03:00;;;;;;;;;;;4.00;86.10;;;;;;5056075;28;20381;-82
2021/12/07 02:05:25;;;;;;;;;;;4.00;86.40;;;;;;5057192;28;19929;-80
2021/12/07 02:07:50;;;;;;;;;;;4.10;86.30;;;;;;5051076;28;19917;-82
2021/12/07 02:10:21;;;;;;;;;;;4.10;85.70;;;;;;5056801;28;19913;-81
2021/12/07 02:12:47;;;;;;;;;;;4.10;85.70;;;;;;5045658;28;19928;-82
2021/12/07 02:15:17;;;;;;;;;;;4.00;86.00;;;;;;5039546;28;19910;-82
2021/12/07 02:17:43;;;;;;;;;;;4.10;86.10;;;;;;5052484;28;19921;-82
2021/12/07 02:20:09;;;;;;;;;;;4.00;85.60;;;;;;5054888;28;19971;-81
2021/12/07 02:22:35;;;;;;;;;;;3.90;85.80;;;;;;5052850;28;19917;-82
2021/12/07 02:25:01;;;;;;;;;;;3.70;85.70;;;;;;5054384;28;19916;-82
2021/12/07 02:27:26;;;;;;;;;;;3.70;86.30;;;;;;5051440;28;19917;-82
2021/12/07 02:29:52;;;;;;;;;;;3.60;86.40;;;;;;5053633;28;20379;-81
2021/12/07 02:32:17;;;;;;;;;;;3.60;86.70;;;;;;5052158;28;19916;-83
2021/12/07 02:34:53;;;;;;;;;;;3.70;86.30;;;;;;5045320;28;19994;-82
2021/12/07 02:37:22;;;;;;;;;;;3.70;85.90;;;;;;5052848;28;20011;-82
2021/12/07 02:39:48;;;;;;;;;;;3.60;86.30;;;;;;5048055;28;20008;-82
2021/12/07 02:42:14;;;;;;;;;;;3.70;86.00;;;;;;5056071;28;19992;-83
2021/12/07 02:44:40;;;;;;;;;;;3.60;86.10;;;;;;5053143;28;20008;-83
2021/12/07 02:47:05;;;;;;;;;;;3.60;86.00;;;;;;5046126;28;19953;-83
2021/12/07 02:49:30;;;;;;;;;;;3.60;86.40;;;;;;5050086;28;19920;-82
2021/12/07 02:51:56;;;;;;;;;;;3.60;86.00;;;;;;5053594;28;20492;-83
2021/12/07 02:54:22;;;;;;;;;;;3.70;86.20;;;;;;5052297;28;19913;-82
2021/12/07 02:56:48;;;;;;;;;;;3.60;85.80;;;;;;5041481;28;19943;-84
2021/12/07 02:59:14;;;;;;;;;;;3.70;86.00;;;;;;5043694;28;19971;-84
2021/12/07 03:01:46;;;;;;;;;;;3.60;85.80;;;;;;5052726;28;19913;-83
2021/12/07 03:04:17;;;;;;;;;;;3.70;85.80;;;;;;5040571;28;19909;-84
2021/12/07 03:26:05;;;;;;;;;;;3.80;86.00;;;;;;4962106;29;19925;-82
2021/12/07 03:28:31;;;;;;;;;;;3.80;86.20;;;;;;4944103;29;20291;-83
2021/12/07 03:30:58;;;;;;;;;;;3.80;86.50;;;;;;4986871;28;19923;-83
2021/12/07 03:33:23;;;;;;;;;;;3.90;86.80;;;;;;5034859;28;19960;-84
2021/12/07 03:35:49;;;;;;;;;;;3.90;86.70;;;;;;5059288;28;19921;-82
2021/12/07 03:38:14;;;;;;;;;;;4.00;86.40;;;;;;5037754;28;19978;-81
2021/12/07 03:40:40;;;;;;;;;;;4.10;85.90;;;;;;5036606;28;20393;-83
2021/12/07 03:43:06;;;;;;;;;;;4.00;86.20;;;;;;5052315;28;19920;-81
2021/12/07 03:45:32;;;;;;;;;;;4.00;86.50;;;;;;5053270;28;19972;-80
2021/12/07 03:47:58;;;;;;;;;;;4.00;86.70;;;;;;5052966;28;20340;-81
2021/12/07 03:50:24;;;;;;;;;;;4.10;86.90;;;;;;5036732;28;19917;-80
2021/12/07 03:52:50;;;;;;;;;;;4.10;87.00;;;;;;5051663;28;20013;-81
2021/12/07 03:55:15;;;;;;;;;;;4.20;86.70;;;;;;5051136;28;19917;-81
2021/12/07 03:57:41;;;;;;;;;;;4.30;86.10;;;;;;5052874;28;20001;-80
2021/12/07 04:00:09;;;;;;;;;;;4.30;86.30;;;;;;5054297;28;19940;-81
2021/12/07 04:02:39;;;;;;;;;;;4.30;86.60;;;;;;5055950;28;19909;-81
2021/12/07 04:05:10;;;;;;;;;;;4.30;87.00;;;;;;5047752;28;20369;-80
2021/12/07 04:07:36;;;;;;;;;;;4.30;86.80;;;;;;5052528;28;20004;-81
2021/12/07 04:10:02;;;;;;;;;;;4.30;86.80;;;;;;5053672;28;19963;-80
2021/12/07 04:12:27;;;;;;;;;;;4.30;86.60;;;;;;5042679;28;20376;-81
2021/12/07 04:14:53;;;;;;;;;;;4.30;86.80;;;;;;5039260;28;19924;-82
2021/12/07 04:17:18;;;;;;;;;;;4.30;86.90;;;;;;5049142;28;19917;-82
2021/12/07 04:19:44;;;;;;;;;;;4.30;87.10;;;;;;5054784;28;19931;-81
2021/12/07 04:22:09;;;;;;;;;;;4.30;87.40;;;;;;5056802;28;20443;-82
2021/12/07 04:24:35;;;;;;;;;;;4.20;87.50;;;;;;5058665;28;19912;-80
2021/12/07 04:27:00;;;;;;;;;;;4.20;87.80;;;;;;5055833;28;20424;-80
2021/12/07 04:29:26;;;;;;;;;;;4.10;87.80;;;;;;5057435;28;20007;-81
2021/12/07 04:31:51;;;;;;;;;;;4.20;88.20;;;;;;5038698;28;19944;-81
2021/12/07 04:34:17;;;;;;;;;;;4.20;88.40;;;;;;5052526;28;19932;-81
2021/12/07 04:36:42;;;;;;;;;;;4.20;87.80;;;;;;5048693;28;19917;-81
2021/12/07 04:39:09;;;;;;;;;;;4.10;88.00;;;;;;5043100;28;19924;-81
2021/12/07 04:41:35;;;;;;;;;;;4.20;88.20;;;;;;5051478;28;20435;-79
2021/12/07 04:44:03;;;;;;;;;;;4.20;88.00;;;;;;5038333;28;19932;-81
2021/12/07 04:46:36;;;;;;;;;;;4.10;88.10;;;;;;5042381;28;20368;-80
2021/12/07 04:57:44;;;;;;;;;;;4.30;88.30;;;;;;5023688;28;19916;-81
2021/12/07 05:00:14;;;;;;;;;;;4.30;88.30;;;;;;5045642;28;19912;-82
2021/12/07 05:02:42;;;;;;;;;;;4.30;88.30;;;;;;5059748;28;19951;-81
2021/12/07 05:05:09;;;;;;;;;;;4.20;88.60;;;;;;5061112;28;19909;-81
2021/12/07 05:07:40;;;;;;;;;;;4.30;88.80;;;;;;5065068;28;20049;-81
2021/12/07 05:12:41;;;;;;;;;;;4.30;88.60;;;;;;5049967;28;19924;-80
2021/12/07 05:15:20;;;;;;;;;;;4.40;88.70;;;;;;5052623;28;19917;-82
2021/12/07 05:39:38;;;;;;;;;;;4.60;89.20;;;;;;5048543;28;19920;-83
2021/12/07 05:42:04;;;;;;;;;;;4.80;89.10;;;;;;5055387;28;19916;-82
2021/12/07 05:44:30;;;;;;;;;;;4.70;88.90;;;;;;5053635;28;19974;-84
2021/12/07 05:46:55;;;;;;;;;;;4.70;88.90;;;;;;5054100;28;19963;-83
2021/12/07 05:49:21;;;;;;;;;;;4.60;89.20;;;;;;5053942;28;19913;-81
2021/12/07 05:51:46;;;;;;;;;;;4.70;89.40;;;;;;5064184;28;19917;-82
2021/12/07 05:54:12;;;;;;;;;;;4.60;89.50;;;;;;5055044;28;19944;-82
2021/12/07 05:56:40;;;;;;;;;;;4.60;89.40;;;;;;5060657;28;19917;-90
2021/12/07 05:59:05;;;;;;;;;;;4.60;89.30;;;;;;5045590;28;20258;-82
2021/12/07 06:01:31;;;;;;;;;;;4.50;89.50;;;;;;5052503;28;19912;-83
2021/12/07 06:03:56;;;;;;;;;;;4.70;89.40;;;;;;5049512;28;21686;-82
2021/12/07 06:06:22;;;;;;;;;;;4.60;89.30;;;;;;5043673;28;19913;-82
2021/12/07 06:08:47;;;;;;;;;;;4.70;89.20;;;;;;5033800;28;20007;-83
2021/12/07 06:11:13;;;;;;;;;;;4.60;89.00;;;;;;5052834;28;19908;-82
2021/12/07 06:13:39;;;;;;;;;;;4.60;89.10;;;;;;5055057;28;19992;-82
2021/12/07 06:16:07;;;;;;;;;;;4.70;89.10;;;;;;5053845;28;19984;-82
2021/12/07 06:18:33;;;;;;;;;;;4.60;89.40;;;;;;5057816;28;19923;-83
2021/12/07 06:20:59;;;;;;;;;;;4.60;89.30;;;;;;5053711;28;19909;-84
2021/12/07 06:23:24;;;;;;;;;;;4.60;89.30;;;;;;5041676;28;19920;-82
2021/12/07 06:25:50;;;;;;;;;;;4.60;89.20;;;;;;5040364;28;19920;-83
2021/12/07 06:28:17;;;;;;;;;;;4.60;89.20;;;;;;5061157;28;20296;-83
2021/12/07 06:30:43;;;;;;;;;;;4.60;89.30;;;;;;5047521;28;20353;-82
2021/12/07 06:33:08;;;;;;;;;;;4.60;89.30;;;;;;5062269;28;19924;-82
2021/12/07 06:35:34;;;;;;;;;;;4.70;89.30;;;;;;5063462;28;19928;-82
2021/12/07 06:37:59;;;;;;;;;;;4.80;89.20;;;;;;5059897;28;20077;-82
2021/12/07 06:40:25;;;;;;;;;;;4.70;89.10;;;;;;5060747;28;19923;-81
2021/12/07 06:42:50;;;;;;;;;;;4.70;89.20;;;;;;5061277;28;19958;-83
2021/12/07 06:45:16;;;;;;;;;;;4.80;88.90;;;;;;5063013;28;19917;-81
2021/12/07 06:47:41;;;;;;;;;;;4.70;89.20;;;;;;5058836;28;19920;-82
2021/12/07 06:50:08;;;;;;;;;;;4.80;89.40;;;;;;5060453;28;19904;-83
2021/12/07 06:52:34;;;;;;;;;;;4.70;89.20;;;;;;5064026;28;19909;-82
2021/12/07 06:54:59;;;;;;;;;;;4.80;89.40;;;;;;5064290;28;19962;-81
2021/12/07 06:57:26;;;;;;;;;;;4.70;89.40;;;;;;5058469;28;19912;-82
2021/12/07 06:59:52;;;;;;;;;;;4.70;89.30;;;;;;5060525;28;19912;-82
2021/12/07 07:02:18;;;;;;;;;;;4.80;89.10;;;;;;5062142;28;19916;-82
2021/12/07 07:04:44;;;;;;;;;;;4.70;89.30;;;;;;5062778;28;19913;-82
2021/12/07 07:07:10;;;;;;;;;;;4.60;89.20;;;;;;5062587;28;19964;-81
2021/12/07 07:09:36;;;;;;;;;;;4.70;89.40;;;;;;5063291;28;19935;-81
2021/12/07 07:12:02;;;;;;;;;;;4.60;89.30;;;;;;5068445;28;19935;-82
2021/12/07 07:14:27;;;;;;;;;;;4.70;89.50;;;;;;5066630;28;20049;-82
2021/12/07 07:16:52;;;;;;;;;;;4.70;89.40;;;;;;5063126;28;19921;-81
2021/12/07 07:19:18;;;;;;;;;;;4.60;89.50;;;;;;5056573;28;19908;-80
2021/12/07 07:21:43;;;;;;;;;;;4.60;89.50;;;;;;5048402;28;19920;-81
2021/12/07 07:24:09;;;;;;;;;;;4.70;89.70;;;;;;5059788;28;20288;-81
2021/12/07 07:26:34;;;;;;;;;;;4.70;89.60;;;;;;5062560;28;20434;-82
2021/12/07 07:29:00;;;;;;;;;;;4.60;89.60;;;;;;5061416;28;19913;-81
2021/12/07 07:31:25;;;;;;;;;;;4.80;89.50;;;;;;5063012;28;19909;-82
2021/12/07 07:33:53;;;;;;;;;;;4.70;89.40;;;;;;5056434;28;20016;-81
2021/12/07 07:36:19;;;;;;;;;;;4.70;89.30;;;;;;5045379;28;19913;-82
2021/12/07 07:38:44;;;;;;;;;;;4.70;89.70;;;;;;5056936;28;20008;-83
2021/12/07 07:41:10;;;;;;;;;;;4.70;89.60;;;;;;5058977;28;20449;-82
2021/12/07 07:43:35;;;;;;;;;;;4.70;89.30;;;;;;5058000;28;19938;-83
2021/12/07 07:46:01;;;;;;;;;;;4.70;89.40;;;;;;5047439;28;19913;-83
2021/12/07 07:48:26;;;;;;;;;;;4.80;89.50;;;;;;5038460;28;20645;-83
2021/12/07 07:50:52;;;;;;;;;;;4.80;89.60;;;;;;5049569;28;19912;-82
2021/12/07 07:53:18;;;;;;;;;;;4.70;89.40;;;;;;5054225;28;19942;-81
2021/12/07 07:55:44;;;;;;;;;;;4.70;89.40;;;;;;5059288;28;19956;-82
2021/12/07 07:58:10;;;;;;;;;;;4.60;89.30;;;;;;5054033;28;19940;-81
2021/12/07 08:00:36;;;;;;;;;;;4.60;89.50;;;;;;5047934;28;20361;-82
2021/12/07 08:03:03;;;;;;;;;;;4.60;89.80;;;;;;5046361;28;20410;-82
2021/12/07 08:05:32;;;;;;;;;;;4.70;89.50;;;;;;5054425;28;19944;-81
2021/12/07 08:07:57;;;;;;;;;;;4.70;89.40;;;;;;5051323;28;19921;-82
2021/12/07 08:10:28;;;;;;;;;;;4.80;89.20;;;;;;5049635;28;19920;-82
2021/12/07 08:13:01;;;;;;;;;;;4.80;88.90;;;;;;5043087;28;20004;-82
2021/12/07 08:15:27;;;;;;;;;;;4.50;89.10;;;;;;5037667;28;19955;-83
2021/12/07 08:17:53;;;;;;;;;;;4.50;89.40;;;;;;5055963;28;19913;-83
2021/12/07 08:20:19;;;;;;;;;;;4.50;89.50;;;;;;5050823;28;19913;-83
2021/12/07 08:22:44;;;;;;;;;;;4.50;89.60;;;;;;5063083;28;19968;-82
2021/12/07 08:25:10;;;;;;;;;;;4.60;89.50;;;;;;5072263;28;19905;-82
2021/12/07 08:27:35;;;;;;;;;;;4.70;89.20;;;;;;5068320;28;19966;-83
2021/12/07 08:30:02;;;;;;;;;;;4.70;89.10;;;;;;5054753;28;20269;-82
2021/12/07 08:32:28;;;;;;;;;;;4.70;89.10;;;;;;5050682;28;19967;-83
2021/12/07 08:34:53;;;;;;;;;;;4.70;89.10;;;;;;5048283;28;20357;-82
2021/12/07 08:37:19;;;;;;;;;;;4.90;89.10;;;;;;5053302;28;19916;-82
2021/12/07 08:39:44;;;;;;;;;;;4.80;88.70;;;;;;5052059;28;20296;-82
2021/12/07 08:42:10;;;;;;;;;;;4.80;88.80;;;;;;5056353;28;19909;-83
2021/12/07 08:44:35;;;;;;;;;;;4.90;88.70;;;;;;5052036;28;19917;-82
2021/12/07 08:47:01;;;;;;;;;;;4.90;88.50;;;;;;5043228;28;19983;-82
2021/12/07 08:49:26;;;;;;;;;;;4.90;88.70;;;;;;5038940;28;20523;-82
2021/12/07 08:51:52;;;;;;;;;;;5.00;88.30;;;;;;5053547;28;19908;-82
2021/12/07 09:00:02;;;;;;;;;;;5.00;88.10;;;;;;5025595;28;20536;-83
2021/12/07 09:02:21;;;;;;;;;;;5.10;88.40;;;;;;5041742;28;19924;-80
2021/12/07 09:04:47;;;;;;;;;;;5.10;88.00;;;;;;5050541;28;20315;-83
2021/12/07 09:07:13;;;;;;;;;;;5.10;87.80;;;;;;5042449;28;19913;-82
2021/12/07 09:09:42;;;;;;;;;;;5.10;87.90;;;;;;5047525;28;19947;-82
2021/12/07 09:12:09;;;;;;;;;;;5.10;87.90;;;;;;5043527;28;19913;-82
2021/12/07 09:14:35;;;;;;;;;;;5.10;87.60;;;;;;5049169;28;19909;-82
2021/12/07 09:17:02;;;;;;;;;;;5.00;87.80;;;;;;5054841;28;19917;-82
2021/12/07 09:19:27;;;;;;;;;;;4.90;87.90;;;;;;5054763;28;19928;-82
2021/12/07 09:21:54;;;;;;;;;;;4.90;88.00;;;;;;5055496;28;20000;-82
2021/12/07 09:24:19;;;;;;;;;;;4.90;88.50;;;;;;5052461;28;20296;-82
2021/12/07 09:26:45;;;;;;;;;;;5.00;88.20;;;;;;5057135;28;19908;-83
2021/12/07 09:29:11;;;;;;;;;;;5.00;88.60;;;;;;5055781;28;19916;-82
2021/12/07 09:31:36;;;;;;;;;;;5.00;88.50;;;;;;5060115;28;19973;-82
2021/12/07 09:34:03;;;;;;;;;;;5.00;88.40;;;;;;5057169;28;19944;-82
2021/12/07 09:36:29;;;;;;;;;;;5.10;88.20;;;;;;5057702;28;19938;-82
2021/12/07 09:38:55;;;;;;;;;;;5.20;87.90;;;;;;5054723;28;19913;-83
2021/12/07 09:41:21;;;;;;;;;;;5.20;88.00;;;;;;5057835;28;19962;-82
2021/12/07 09:43:46;;;;;;;;;;;5.30;87.50;;;;;;5057325;28;20428;-82
2021/12/07 09:46:12;;;;;;;;;;;5.30;87.60;;;;;;5049756;28;19921;-82
2021/12/07 09:48:38;;;;;;;;;;;5.40;87.30;;;;;;5057203;28;19913;-82
2021/12/07 09:51:07;;;;;;;;;;;5.30;87.20;;;;;;5055924;28;20321;-82
2021/12/07 09:53:32;;;;;;;;;;;5.30;86.70;;;;;;5054282;28;20391;-82
2021/12/07 09:55:59;;;;;;;;;;;5.20;87.10;;;;;;5051528;28;19917;-81
2021/12/07 09:58:25;;;;;;;;;;;5.20;87.20;;;;;;5047350;28;19940;-82
2021/12/07 10:00:51;;;;;;;;;;;5.20;87.10;;;;;;5043299;28;19909;-82
2021/12/07 10:03:18;;;;;;;;;;;5.20;87.20;;;;;;5055663;28;19939;-82
2021/12/07 10:05:43;;;;;;;;;;;5.20;87.00;;;;;;5052669;28;19995;-83
2021/12/07 10:08:09;;;;;;;;;;;5.20;87.20;;;;;;5056925;28;20422;-82
2021/12/07 10:10:37;;;;;;;;;;;5.20;87.40;;;;;;5054323;28;20301;-82
2021/12/07 10:13:03;;;;;;;;;;;5.30;87.10;;;;;;5056064;28;19917;-82
2021/12/07 10:15:29;;;;;;;;;;;5.50;86.70;;;;;;5057113;28;19923;-83
2021/12/07 10:18:00;;;;;;;;;;;5.50;86.00;;;;;;5072108;28;20334;-82
2021/12/07 10:20:33;;;;;;;;;;;5.50;86.10;;;;;;5055650;28;20482;-82
2021/12/07 10:23:05;;;;;;;;;;;5.60;86.10;;;;;;5045707;28;20288;-83
2021/12/07 10:25:30;;;;;;;;;;;5.60;86.10;;;;;;5055601;28;19913;-82
2021/12/07 10:27:57;;;;;;;;;;;5.60;86.30;;;;;;5051076;28;19920;-81
2021/12/07 10:30:23;;;;;;;;;;;5.70;86.10;;;;;;5050104;28;19913;-83
2021/12/07 10:32:59;;;;;;;;;;;5.70;85.50;;;;;;5043200;28;20379;-85
2021/12/07 10:35:33;;;;;;;;;;;5.70;85.40;;;;;;5042074;28;19915;-85
2021/12/07 10:38:07;;;;;;;;;;;5.70;85.50;;;;;;5050047;28;20402;-85
2021/12/07 10:41:05;;;;;;;;;;;5.70;85.30;;;;;;5051962;28;19913;-84
2021/12/07 10:46:57;;;;;;;;;;;;;;;;;;;;;
2021/12/07 10:56:11;;;;;;;;;;;5.60;85.30;;;;;;4963671;28;20496;-86
2021/12/07 11:02:31;;;;;;;;;;;5.60;85.20;;;;;;5035639;28;19944;-87
2021/12/07 11:08:14;;;;;;;;;;;5.60;84.90;;;;;;5052374;28;19916;-86
2021/12/07 11:16:50;;;;;;;;;;;5.60;85.50;;;;;;4992022;28;19978;-87
2021/12/07 11:19:35;;;;;;;;;;;5.60;85.40;;;;;;5049860;28;19909;-87
2021/12/07 11:22:31;;;;;;;;;;;5.50;85.70;;;;;;5048888;28;20289;-86
2021/12/07 11:24:57;;;;;;;;;;;5.50;85.40;;;;;;5042329;28;19917;-87
2021/12/07 11:30:30;;;;;;;;;;;5.40;85.40;;;;;;5054734;28;19939;-82
2021/12/07 11:33:04;;;;;;;;;;;5.30;85.00;;;;;;5053476;28;19916;-81
2021/12/07 11:35:33;;;;;;;;;;;5.40;85.90;;;;;;5054865;28;20019;-82
2021/12/07 11:37:59;;;;;;;;;;;5.40;85.70;;;;;;5051766;28;19999;-81
2021/12/07 11:40:27;;;;;;;;;;;5.50;86.00;;;;;;5054887;28;19913;-81
2021/12/07 11:42:52;;;;;;;;;;;5.50;86.20;;;;;;5055289;28;19909;-81
2021/12/07 11:45:20;;;;;;;;;;;5.60;85.70;;;;;;5054802;28;19920;-80
2021/12/07 11:47:49;;;;;;;;;;;5.70;85.00;;;;;;5053497;28;19924;-83
2021/12/07 11:50:24;;;;;;;;;;;5.80;85.10;;;;;;5054455;28;19948;-82
2021/12/07 11:52:52;;;;;;;;;;;5.90;85.00;;;;;;5054064;28;19913;-81
2021/12/07 11:55:18;;;;;;;;;;;6.00;84.20;;;;;;5045500;28;20326;-82
2021/12/07 11:57:44;;;;;;;;;;;6.00;83.90;;;;;;5046221;28;19921;-81
2021/12/07 12:00:11;;;;;;;;;;;6.10;82.70;;;;;;5054485;28;19975;-82
2021/12/07 12:02:37;;;;;;;;;;;6.10;83.00;;;;;;5052071;28;19980;-84
2021/12/07 12:05:03;;;;;;;;;;;6.00;83.40;;;;;;5046514;28;20338;-83
2021/12/07 12:07:29;;;;;;;;;;;5.90;83.50;;;;;;5046970;28;19909;-83
2021/12/07 12:09:54;;;;;;;;;;;6.00;83.20;;;;;;5052073;28;20464;-83
2021/12/07 12:12:23;;;;;;;;;;;6.00;82.80;;;;;;5055678;28;20004;-83
2021/12/07 12:14:48;;;;;;;;;;;6.00;82.60;;;;;;5060828;28;19951;-85
2021/12/07 12:17:23;;;;;;;;;;;6.00;82.80;;;;;;5079492;28;19904;-82
2021/12/07 12:20:07;;;;;;;;;;;6.10;82.70;;;;;;5056599;28;19952;-81
2021/12/07 12:22:35;;;;;;;;;;;6.10;82.40;;;;;;5072110;28;19967;-83
2021/12/07 12:25:05;;;;;;;;;;;6.10;82.30;;;;;;5063709;28;20383;-81
2021/12/07 12:27:33;;;;;;;;;;;6.10;82.60;;;;;;5069580;28;19948;-81
2021/12/07 12:30:01;;;;;;;;;;;6.00;83.20;;;;;;5052771;28;19973;-82
2021/12/07 12:32:31;;;;;;;;;;;6.00;83.20;;;;;;5052363;28;20277;-82
2021/12/07 12:34:57;;;;;;;;;;;6.10;82.40;;;;;;5050913;28;19913;-82
2021/12/07 12:37:25;;;;;;;;;;;6.20;81.80;;;;;;5051486;28;19924;-82
2021/12/07 12:39:55;;;;;;;;;;;6.30;81.60;;;;;;5049581;28;19917;-83
2021/12/07 12:42:24;;;;;;;;;;;6.40;81.70;;;;;;5052098;28;19938;-83
2021/12/07 12:44:54;;;;;;;;;;;6.40;81.40;;;;;;5050764;28;19943;-82
2021/12/07 12:47:23;;;;;;;;;;;6.40;80.80;;;;;;5047841;28;19940;-82
2021/12/07 12:49:49;;;;;;;;;;;6.30;81.10;;;;;;5048682;28;20334;-83
2021/12/07 12:52:15;;;;;;;;;;;6.40;81.40;;;;;;5047193;28;19913;-82
2021/12/07 12:54:42;;;;;;;;;;;6.30;81.70;;;;;;5051921;28;20373;-82
2021/12/07 12:57:09;;;;;;;;;;;6.30;81.70;;;;;;5052736;28;19920;-83
2021/12/07 12:59:39;;;;;;;;;;;6.40;82.20;;;;;;5050931;28;19912;-82
2021/12/07 13:02:04;;;;;;;;;;;6.50;81.80;;;;;;5048267;28;19924;-82
2021/12/07 13:04:31;;;;;;;;;;;6.60;81.00;;;;;;5053304;28;19921;-82
2021/12/07 13:09:44;;;;;;;;;;;6.60;80.80;;;;;;5054405;28;19909;-83
2021/12/07 13:12:12;;;;;;;;;;;6.50;80.90;;;;;;5054491;28;19913;-83
2021/12/07 13:14:40;;;;;;;;;;;6.50;81.30;;;;;;5049323;28;19992;-82
2021/12/07 13:17:24;;;;;;;;;;;6.30;80.50;;;;;;5038673;28;19921;-83
2021/12/07 13:20:08;;;;;;;;;;;6.40;81.00;;;;;;5049277;28;19917;-83
2021/12/07 13:22:35;;;;;;;;;;;6.50;80.30;;;;;;5050972;28;20298;-82
2021/12/07 13:25:05;;;;;;;;;;;6.50;79.50;;;;;;5048543;28;19913;-84
2021/12/07 13:27:31;;;;;;;;;;;6.50;79.50;;;;;;5043959;28;19956;-84
2021/12/07 13:29:56;;;;;;;;;;;6.50;79.40;;;;;;5039405;28;20486;-82
2021/12/07 13:32:22;;;;;;;;;;;6.30;80.10;;;;;;5049545;28;20348;-83
2021/12/07 13:34:58;;;;;;;;;;;6.30;81.00;;;;;;5042969;28;20357;-83
2021/12/07 13:37:42;;;;;;;;;;;6.20;81.20;;;;;;5050104;28;19920;-84
2021/12/07 13:40:15;;;;;;;;;;;6.20;81.50;;;;;;5050540;28;19928;-84
2021/12/07 13:42:45;;;;;;;;;;;6.30;80.80;;;;;;5043440;28;19955;-85
2021/12/07 13:45:12;;;;;;;;;;;6.10;81.30;;;;;;5052164;28;19913;-85
2021/12/07 13:47:42;;;;;;;;;;;5.90;82.30;;;;;;5051098;28;19909;-85
2021/12/07 13:50:12;;;;;;;;;;;5.80;82.10;;;;;;5038249;28;19913;-84
2021/12/07 13:52:39;;;;;;;;;;;6.00;81.30;;;;;;5047826;28;19916;-84
2021/12/07 13:55:07;;;;;;;;;;;6.10;81.20;;;;;;5049616;28;19924;-83
2021/12/07 13:57:35;;;;;;;;;;;5.80;81.50;;;;;;5054656;28;20293;-83
2021/12/07 14:00:00;;;;;;;;;;;5.90;81.10;;;;;;5055163;28;19935;-83
2021/12/07 14:02:26;;;;;;;;;;;5.70;81.60;;;;;;5046687;28;19976;-83
2021/12/07 14:05:25;;;;;;;;;;;5.60;82.20;;;;;;5054638;28;19908;-84
2021/12/07 14:07:51;;;;;;;;;;;5.70;81.80;;;;;;5012663;28;20237;-83
2021/12/07 14:10:29;;;;;;;;;;;5.60;81.70;;;;;;5058548;28;19916;-84
2021/12/07 14:12:55;;;;;;;;;;;5.60;81.10;;;;;;5051945;28;20293;-85
2021/12/07 14:15:21;;;;;;;;;;;5.60;81.50;;;;;;5038038;28;19910;-83
2021/12/07 14:17:48;;;;;;;;;;;5.50;81.40;;;;;;5054809;28;19917;-85
2021/12/07 14:20:26;;;;;;;;;;;5.40;81.80;;;;;;5050605;28;20015;-86
2021/12/07 14:22:51;;;;;;;;;;;5.60;82.10;;;;;;5050526;28;19913;-85
2021/12/07 14:25:20;;;;;;;;;;;5.60;81.80;;;;;;5048156;28;19924;-85
2021/12/07 14:27:46;;;;;;;;;;;5.70;81.20;;;;;;5051967;28;19962;-84
2021/12/07 14:30:13;;;;;;;;;;;5.60;81.30;;;;;;5053401;28;20475;-82
2021/12/07 14:32:40;;;;;;;;;;;5.60;81.00;;;;;;5046391;28;19924;-83
2021/12/07 14:35:05;;;;;;;;;;;5.60;80.20;;;;;;5044207;28;19928;-84
2021/12/07 14:37:31;;;;;;;;;;;5.60;80.00;;;;;;5057729;28;19916;-86
2021/12/07 14:42:51;;;;;;;;;;;5.60;80.00;;;;;;5066105;28;19913;-82
2021/12/07 14:45:17;;;;;;;;;;;5.60;80.20;;;;;;5050712;28;19917;-84
2021/12/07 14:47:42;;;;;;;;;;;5.60;80.20;;;;;;5037909;28;20005;-85
2021/12/07 14:50:08;;;;;;;;;;;5.40;80.70;;;;;;5040702;28;20360;-87
2021/12/07 14:52:35;;;;;;;;;;;5.40;80.40;;;;;;5058514;28;19962;-86
2021/12/07 14:55:01;;;;;;;;;;;5.40;79.80;;;;;;5056608;28;19917;-85
2021/12/07 14:57:27;;;;;;;;;;;5.40;79.50;;;;;;5054920;28;19920;-86
2021/12/07 14:59:57;;;;;;;;;;;5.40;79.30;;;;;;5058037;28;20391;-83
2021/12/07 15:02:23;;;;;;;;;;;5.50;78.80;;;;;;5059349;28;19909;-86
2021/12/07 15:04:56;;;;;;;;;;;5.40;78.40;;;;;;5048146;28;19913;-85
2021/12/07 15:07:30;;;;;;;;;;;5.40;78.00;;;;;;5072322;28;20041;-85
2021/12/07 15:09:56;;;;;;;;;;;5.40;77.40;;;;;;5078483;28;19905;-84
2021/12/07 15:12:22;;;;;;;;;;;5.30;77.00;;;;;;5063291;28;19927;-87
2021/12/07 15:14:55;;;;;;;;;;;5.20;77.80;;;;;;5050652;28;19917;-84
2021/12/07 15:17:23;;;;;;;;;;;5.20;77.70;;;;;;5050875;28;19923;-87
2021/12/07 15:19:49;;;;;;;;;;;5.10;78.70;;;;;;5048006;28;19913;-86
2021/12/07 15:22:14;;;;;;;;;;;5.10;78.20;;;;;;5047041;28;19987;-86
2021/12/07 15:24:40;;;;;;;;;;;5.10;77.90;;;;;;5054525;28;19917;-85
2021/12/07 15:27:06;;;;;;;;;;;5.00;78.60;;;;;;5059885;28;19917;-86
2021/12/07 15:29:33;;;;;;;;;;;4.90;79.50;;;;;;5062303;28;19924;-85
2021/12/07 15:32:06;;;;;;;;;;;5.00;78.70;;;;;;5063170;28;19941;-85
2021/12/07 15:34:33;;;;;;;;;;;4.90;79.40;;;;;;5066073;28;20360;-85
2021/12/07 15:36:58;;;;;;;;;;;4.80;79.50;;;;;;5049023;28;20328;-85
2021/12/07 15:39:25;;;;;;;;;;;4.80;79.50;;;;;;5060277;28;19912;-85
2021/12/07 15:41:52;;;;;;;;;;;4.70;79.60;;;;;;5049241;28;19909;-85
2021/12/07 15:44:22;;;;;;;;;;;4.60;80.10;;;;;;5046714;28;19913;-86
2021/12/07 15:46:50;;;;;;;;;;;4.70;79.90;;;;;;5063224;28;19916;-86
2021/12/07 15:49:22;;;;;;;;;;;4.80;79.30;;;;;;5056392;28;19976;-85
2021/12/07 15:51:49;;;;;;;;;;;4.80;78.90;;;;;;5054697;28;19921;-84
2021/12/07 15:54:15;;;;;;;;;;;4.60;79.50;;;;;;5051194;28;19913;-87
2021/12/07 15:56:40;;;;;;;;;;;4.70;78.80;;;;;;5046339;28;20053;-85
2021/12/07 15:59:13;;;;;;;;;;;4.60;79.60;;;;;;5051196;28;19912;-84
2021/12/07 16:01:39;;;;;;;;;;;4.40;79.40;;;;;;5045530;28;19916;-85
2021/12/07 16:04:04;;;;;;;;;;;4.30;79.70;;;;;;5050905;28;19923;-85
2021/12/07 16:06:30;;;;;;;;;;;4.20;79.90;;;;;;5060814;28;19912;-84
2021/12/07 16:08:55;;;;;;;;;;;4.20;80.80;;;;;;5053990;28;19921;-86
2021/12/07 16:11:23;;;;;;;;;;;4.30;80.70;;;;;;5054923;28;19917;-85
2021/12/07 16:13:50;;;;;;;;;;;4.50;79.40;;;;;;5053472;28;20003;-85
2021/12/07 16:16:17;;;;;;;;;;;4.30;79.60;;;;;;5059987;28;20316;-85
2021/12/07 16:18:43;;;;;;;;;;;4.30;79.60;;;;;;5050589;28;19912;-85
2021/12/07 16:21:08;;;;;;;;;;;4.30;79.20;;;;;;5060948;28;20051;-85
2021/12/07 16:23:35;;;;;;;;;;;4.20;79.30;;;;;;5054364;28;19923;-87
2021/12/07 16:26:01;;;;;;;;;;;4.40;79.00;;;;;;5044243;28;20054;-84
2021/12/07 16:28:26;;;;;;;;;;;4.40;79.00;;;;;;5038672;28;19954;-85
2021/12/07 16:30:52;;;;;;;;;;;4.30;78.60;;;;;;5054922;28;19950;-85
2021/12/07 16:33:17;;;;;;;;;;;4.10;79.20;;;;;;5054166;28;19925;-84
2021/12/07 16:35:43;;;;;;;;;;;4.20;79.20;;;;;;5050128;28;19995;-84
2021/12/07 16:38:08;;;;;;;;;;;4.10;79.10;;;;;;5050956;28;20635;-86